sensor_id;sensor_type;location;lat;lon;timestamp;pressure;altitude;pressure_sealevel;temperature
71630;BMP280;59479;51.902;8.212;2023-04-24T00:00:19;99488.59;;;13.80
71630;BMP280;59479;51.902;8.212;2023-04-24T00:02:45;99491.09;;;13.80
71630;BMP280;59479;51.902;8.212;2023-04-24T00:05:15;99490.88;;;13.87
71630;BMP280;59479;51.902;8.212;2023-04-24T00:07:41;99485.03;;;13.86
71630;BMP280;59479;51.902;8.212;2023-04-24T00:10:07;99484.69;;;13.97
71630;BMP280;59479;51.902;8.212;2023-04-24T00:12:32;99482.06;;;14.00
71630;BMP280;59479;51.902;8.212;2023-04-24T00:14:58;99492.09;;;14.03
71630;BMP280;59479;51.902;8.212;2023-04-24T00:17:23;99483.69;;;14.01
71630;BMP280;59479;51.902;8.212;2023-04-24T00:19:49;99481.25;;;13.98
71630;BMP280;59479;51.902;8.212;2023-04-24T00:22:16;99487.72;;;14.08
71630;BMP280;59479;51.902;8.212;2023-04-24T00:24:42;99481.25;;;13.98
71630;BMP280;59479;51.902;8.212;2023-04-24T00:27:07;99481.59;;;13.87
71630;BMP280;59479;51.902;8.212;2023-04-24T00:29:33;99482.53;;;13.85
71630;BMP280;59479;51.902;8.212;2023-04-24T00:31:58;99474.41;;;13.76
71630;BMP280;59479;51.902;8.212;2023-04-24T00:34:24;99465.28;;;13.72
71630;BMP280;59479;51.902;8.212;2023-04-24T00:36:49;99473.28;;;13.58
71630;BMP280;59479;51.902;8.212;2023-04-24T00:39:18;99467.34;;;13.59
71630;BMP280;59479;51.902;8.212;2023-04-24T00:41:43;99463.19;;;13.58
71630;BMP280;59479;51.902;8.212;2023-04-24T00:44:10;99473.84;;;13.66
71630;BMP280;59479;51.902;8.212;2023-04-24T00:46:36;99467.22;;;13.64
71630;BMP280;59479;51.902;8.212;2023-04-24T00:49:02;99464.59;;;13.67
71630;BMP280;59479;51.902;8.212;2023-04-24T00:51:27;99453.63;;;13.68
71630;BMP280;59479;51.902;8.212;2023-04-24T00:53:52;99455.22;;;13.70
71630;BMP280;59479;51.902;8.212;2023-04-24T00:56:18;99459.50;;;13.68
71630;BMP280;59479;51.902;8.212;2023-04-24T00:58:44;99447.63;;;13.72
71630;BMP280;59479;51.902;8.212;2023-04-24T01:01:10;99448.66;;;13.65
71630;BMP280;59479;51.902;8.212;2023-04-24T01:03:37;99451.81;;;13.71
71630;BMP280;59479;51.902;8.212;2023-04-24T01:06:04;99448.22;;;13.78
71630;BMP280;59479;51.902;8.212;2023-04-24T01:08:30;99439.19;;;13.71
71630;BMP280;59479;51.902;8.212;2023-04-24T01:10:57;99442.63;;;13.70
71630;BMP280;59479;51.902;8.212;2023-04-24T01:13:22;99445.59;;;13.81
71630;BMP280;59479;51.902;8.212;2023-04-24T01:15:48;99438.72;;;13.86
71630;BMP280;59479;51.902;8.212;2023-04-24T01:18:14;99442.31;;;13.79
71630;BMP280;59479;51.902;8.212;2023-04-24T01:20:40;99440.00;;;13.73
71630;BMP280;59479;51.902;8.212;2023-04-24T01:23:07;99450.13;;;13.72
71630;BMP280;59479;51.902;8.212;2023-04-24T01:25:33;99451.03;;;13.69
71630;BMP280;59479;51.902;8.212;2023-04-24T01:27:59;99445.41;;;13.61
71630;BMP280;59479;51.902;8.212;2023-04-24T01:30:25;99453.78;;;13.63
71630;BMP280;59479;51.902;8.212;2023-04-24T01:32:51;99457.16;;;13.62
71630;BMP280;59479;51.902;8.212;2023-04-24T01:35:17;99457.00;;;13.68
71630;BMP280;59479;51.902;8.212;2023-04-24T01:37:42;99457.28;;;13.58
71630;BMP280;59479;51.902;8.212;2023-04-24T01:40:08;99450.59;;;13.57
71630;BMP280;59479;51.902;8.212;2023-04-24T01:42:34;99454.00;;;13.56
71630;BMP280;59479;51.902;8.212;2023-04-24T01:45:02;99453.75;;;13.36
71630;BMP280;59479;51.902;8.212;2023-04-24T01:47:29;99454.00;;;13.29
71630;BMP280;59479;51.902;8.212;2023-04-24T01:49:55;99456.91;;;13.43
71630;BMP280;59479;51.902;8.212;2023-04-24T01:52:20;99458.38;;;13.22
71630;BMP280;59479;51.902;8.212;2023-04-24T01:54:46;99445.34;;;13.08
71630;BMP280;59479;51.902;8.212;2023-04-24T01:57:11;99447.28;;;13.28
71630;BMP280;59479;51.902;8.212;2023-04-24T01:59:37;99453.50;;;13.16
71630;BMP280;59479;51.902;8.212;2023-04-24T02:02:03;99457.44;;;13.25
71630;BMP280;59479;51.902;8.212;2023-04-24T02:04:28;99450.78;;;13.24
71630;BMP280;59479;51.902;8.212;2023-04-24T02:06:53;99453.38;;;13.21
71630;BMP280;59479;51.902;8.212;2023-04-24T02:09:19;99454.34;;;13.17
71630;BMP280;59479;51.902;8.212;2023-04-24T02:11:44;99454.16;;;13.23
71630;BMP280;59479;51.902;8.212;2023-04-24T02:14:10;99456.25;;;13.09
71630;BMP280;59479;51.902;8.212;2023-04-24T02:16:35;99454.34;;;13.17
71630;BMP280;59479;51.902;8.212;2023-04-24T02:19:01;99459.47;;;13.14
71630;BMP280;59479;51.902;8.212;2023-04-24T02:21:27;99453.78;;;13.07
71630;BMP280;59479;51.902;8.212;2023-04-24T02:23:53;99437.78;;;13.08
71630;BMP280;59479;51.902;8.212;2023-04-24T02:26:18;99450.59;;;13.01
71630;BMP280;59479;51.902;8.212;2023-04-24T02:28:44;99449.94;;;12.95
71630;BMP280;59479;51.902;8.212;2023-04-24T02:31:09;99448.97;;;13.00
71630;BMP280;59479;51.902;8.212;2023-04-24T02:33:34;99450.06;;;12.90
71630;BMP280;59479;51.902;8.212;2023-04-24T02:36:01;99451.00;;;12.86
71630;BMP280;59479;51.902;8.212;2023-04-24T02:38:26;99458.66;;;12.83
71630;BMP280;59479;51.902;8.212;2023-04-24T02:40:52;99452.06;;;12.78
71630;BMP280;59479;51.902;8.212;2023-04-24T02:43:17;99460.88;;;12.63
71630;BMP280;59479;51.902;8.212;2023-04-24T02:45:43;99454.09;;;12.65
71630;BMP280;59479;51.902;8.212;2023-04-24T02:48:08;99456.25;;;12.79
71630;BMP280;59479;51.902;8.212;2023-04-24T02:50:33;99462.28;;;12.73
71630;BMP280;59479;51.902;8.212;2023-04-24T02:52:59;99469.03;;;12.71
71630;BMP280;59479;51.902;8.212;2023-04-24T02:55:24;99459.66;;;12.76
71630;BMP280;59479;51.902;8.212;2023-04-24T02:57:50;99465.44;;;12.81
71630;BMP280;59479;51.902;8.212;2023-04-24T03:00:15;99470.41;;;12.84
71630;BMP280;59479;51.902;8.212;2023-04-24T03:02:41;99467.03;;;12.85
71630;BMP280;59479;51.902;8.212;2023-04-24T03:05:07;99470.41;;;12.84
71630;BMP280;59479;51.902;8.212;2023-04-24T03:07:32;99461.84;;;12.90
71630;BMP280;59479;51.902;8.212;2023-04-24T03:09:58;99466.19;;;12.85
71630;BMP280;59479;51.902;8.212;2023-04-24T03:12:24;99464.25;;;12.94
71630;BMP280;59479;51.902;8.212;2023-04-24T03:14:50;99458.47;;;12.91
71630;BMP280;59479;51.902;8.212;2023-04-24T03:17:15;99455.66;;;13.00
71630;BMP280;59479;51.902;8.212;2023-04-24T03:19:41;99464.28;;;12.93
71630;BMP280;59479;51.902;8.212;2023-04-24T03:22:06;99459.16;;;12.96
71630;BMP280;59479;51.902;8.212;2023-04-24T03:24:31;99463.47;;;12.92
71630;BMP280;59479;51.902;8.212;2023-04-24T03:26:57;99471.72;;;12.97
71630;BMP280;59479;51.902;8.212;2023-04-24T03:29:22;99463.19;;;13.01
71630;BMP280;59479;51.902;8.212;2023-04-24T03:31:48;99459.97;;;12.96
71630;BMP280;59479;51.902;8.212;2023-04-24T03:34:13;99458.50;;;12.89
71630;BMP280;59479;51.902;8.212;2023-04-24T03:36:39;99467.03;;;12.85
71630;BMP280;59479;51.902;8.212;2023-04-24T03:39:04;99451.72;;;12.91
71630;BMP280;59479;51.902;8.212;2023-04-24T03:41:30;99455.00;;;12.93
71630;BMP280;59479;51.902;8.212;2023-04-24T03:43:56;99442.31;;;12.96
71630;BMP280;59479;51.902;8.212;2023-04-24T03:46:21;99435.38;;;13.04
71630;BMP280;59479;51.902;8.212;2023-04-24T03:48:46;99449.84;;;12.98
71630;BMP280;59479;51.902;8.212;2023-04-24T03:51:12;99449.25;;;12.88
71630;BMP280;59479;51.902;8.212;2023-04-24T03:53:37;99452.50;;;12.93
71630;BMP280;59479;51.902;8.212;2023-04-24T03:56:02;99453.19;;;12.98
71630;BMP280;59479;51.902;8.212;2023-04-24T03:58:28;99451.63;;;12.94
71630;BMP280;59479;51.902;8.212;2023-04-24T04:00:53;99455.97;;;12.89
71630;BMP280;59479;51.902;8.212;2023-04-24T04:03:18;99461.28;;;12.79
71630;BMP280;59479;51.902;8.212;2023-04-24T04:05:44;99468.59;;;12.89
71630;BMP280;59479;51.902;8.212;2023-04-24T04:08:10;99474.88;;;12.73
71630;BMP280;59479;51.902;8.212;2023-04-24T04:10:35;99484.41;;;12.62
71630;BMP280;59479;51.902;8.212;2023-04-24T04:13:00;99482.25;;;12.49
71630;BMP280;59479;51.902;8.212;2023-04-24T04:15:26;99496.91;;;12.35
71630;BMP280;59479;51.902;8.212;2023-04-24T04:17:51;99510.59;;;12.24
71630;BMP280;59479;51.902;8.212;2023-04-24T04:20:16;99505.34;;;12.33
71630;BMP280;59479;51.902;8.212;2023-04-24T04:22:42;99507.00;;;12.34
71630;BMP280;59479;51.902;8.212;2023-04-24T04:25:07;99520.22;;;12.09
71630;BMP280;59479;51.902;8.212;2023-04-24T04:27:33;99522.78;;;12.07
71630;BMP280;59479;51.902;8.212;2023-04-24T04:30:00;99527.69;;;12.12
71630;BMP280;59479;51.902;8.212;2023-04-24T04:32:31;99529.88;;;11.90
71630;BMP280;59479;51.902;8.212;2023-04-24T04:34:58;99518.09;;;11.92
71630;BMP280;59479;51.902;8.212;2023-04-24T04:37:31;99521.44;;;11.91
71630;BMP280;59479;51.902;8.212;2023-04-24T04:39:57;99518.00;;;11.97
71630;BMP280;59479;51.902;8.212;2023-04-24T04:42:24;99510.44;;;11.97
71630;BMP280;59479;51.902;8.212;2023-04-24T04:44:49;99528.69;;;12.05
71630;BMP280;59479;51.902;8.212;2023-04-24T04:47:16;99515.28;;;12.04
71630;BMP280;59479;51.902;8.212;2023-04-24T04:49:42;99514.44;;;12.05
71630;BMP280;59479;51.902;8.212;2023-04-24T04:52:08;99517.59;;;12.12
71630;BMP280;59479;51.902;8.212;2023-04-24T04:54:34;99516.06;;;12.06
71630;BMP280;59479;51.902;8.212;2023-04-24T04:56:59;99512.75;;;12.04
71630;BMP280;59479;51.902;8.212;2023-04-24T04:59:25;99525.38;;;12.03
71630;BMP280;59479;51.902;8.212;2023-04-24T05:01:51;99521.09;;;12.06
71630;BMP280;59479;51.902;8.212;2023-04-24T05:04:16;99513.72;;;12.00
71630;BMP280;59479;51.902;8.212;2023-04-24T05:06:41;99513.78;;;11.97
71630;BMP280;59479;51.902;8.212;2023-04-24T05:09:07;99529.53;;;12.05
71630;BMP280;59479;51.902;8.212;2023-04-24T05:11:32;99522.03;;;12.04
71630;BMP280;59479;51.902;8.212;2023-04-24T05:13:57;99514.50;;;12.02
71630;BMP280;59479;51.902;8.212;2023-04-24T05:16:23;99523.09;;;11.94
71630;BMP280;59479;51.902;8.212;2023-04-24T05:18:48;99518.97;;;11.90
71630;BMP280;59479;51.902;8.212;2023-04-24T05:21:13;99517.19;;;11.93
71630;BMP280;59479;51.902;8.212;2023-04-24T05:23:39;99525.38;;;12.03
71630;BMP280;59479;51.902;8.212;2023-04-24T05:26:04;99513.06;;;11.92
71630;BMP280;59479;51.902;8.212;2023-04-24T05:28:30;99514.63;;;11.96
71630;BMP280;59479;51.902;8.212;2023-04-24T05:30:55;99516.06;;;12.06
71630;BMP280;59479;51.902;8.212;2023-04-24T05:33:21;99512.81;;;12.01
71630;BMP280;59479;51.902;8.212;2023-04-24T05:35:47;99510.53;;;11.92
71630;BMP280;59479;51.902;8.212;2023-04-24T05:38:13;99517.31;;;11.89
71630;BMP280;59479;51.902;8.212;2023-04-24T05:40:39;99513.59;;;12.05
71630;BMP280;59479;51.902;8.212;2023-04-24T05:43:04;99517.84;;;12.03
71630;BMP280;59479;51.902;8.212;2023-04-24T05:45:30;99512.13;;;11.95
71630;BMP280;59479;51.902;8.212;2023-04-24T05:47:55;99514.63;;;11.96
71630;BMP280;59479;51.902;8.212;2023-04-24T05:50:21;99521.31;;;11.97
71630;BMP280;59479;51.902;8.212;2023-04-24T05:52:46;99517.47;;;11.81
71630;BMP280;59479;51.902;8.212;2023-04-24T05:55:11;99519.06;;;11.87
71630;BMP280;59479;51.902;8.212;2023-04-24T05:57:37;99524.75;;;11.93
71630;BMP280;59479;51.902;8.212;2023-04-24T06:00:03;99514.63;;;11.96
71630;BMP280;59479;51.902;8.212;2023-04-24T06:02:29;99517.03;;;12.01
71630;BMP280;59479;51.902;8.212;2023-04-24T06:04:58;99527.34;;;11.92
71630;BMP280;59479;51.902;8.212;2023-04-24T06:07:24;99528.91;;;11.96
71630;BMP280;59479;51.902;8.212;2023-04-24T06:09:51;99516.28;;;11.97
71630;BMP280;59479;51.902;8.212;2023-04-24T06:12:16;99523.19;;;11.89
71630;BMP280;59479;51.902;8.212;2023-04-24T06:14:41;99522.91;;;12.01
71630;BMP280;59479;51.902;8.212;2023-04-24T06:17:07;99525.28;;;12.07
71630;BMP280;59479;51.902;8.212;2023-04-24T06:19:32;99525.28;;;12.07
71630;BMP280;59479;51.902;8.212;2023-04-24T06:21:57;99528.56;;;12.11
71630;BMP280;59479;51.902;8.212;2023-04-24T06:24:27;99533.75;;;12.03
71630;BMP280;59479;51.902;8.212;2023-04-24T06:26:52;99535.50;;;12.01
71630;BMP280;59479;51.902;8.212;2023-04-24T06:29:17;99538.00;;;12.01
71630;BMP280;59479;51.902;8.212;2023-04-24T06:31:43;99538.28;;;11.89
71630;BMP280;59479;51.902;8.212;2023-04-24T06:34:08;99543.25;;;11.92
71630;BMP280;59479;51.902;8.212;2023-04-24T06:36:33;99534.91;;;11.90
71630;BMP280;59479;51.902;8.212;2023-04-24T06:39:00;99542.19;;;12.02
71630;BMP280;59479;51.902;8.212;2023-04-24T06:41:26;99538.22;;;11.92
71630;BMP280;59479;51.902;8.212;2023-04-24T06:43:52;99542.31;;;11.96
71630;BMP280;59479;51.902;8.212;2023-04-24T06:46:17;99546.56;;;11.94
71630;BMP280;59479;51.902;8.212;2023-04-24T06:48:43;99542.56;;;11.86
71630;BMP280;59479;51.902;8.212;2023-04-24T06:51:08;99544.66;;;12.05
71630;BMP280;59479;51.902;8.212;2023-04-24T06:53:34;99541.38;;;12.02
71630;BMP280;59479;51.902;8.212;2023-04-24T06:56:00;99542.47;;;11.90
71630;BMP280;59479;51.902;8.212;2023-04-24T06:58:25;99546.69;;;11.88
71630;BMP280;59479;51.902;8.212;2023-04-24T07:00:51;99549.19;;;11.88
71630;BMP280;59479;51.902;8.212;2023-04-24T07:03:16;99552.53;;;11.90
71630;BMP280;59479;51.902;8.212;2023-04-24T07:05:42;99552.38;;;11.96
71630;BMP280;59479;51.902;8.212;2023-04-24T07:08:07;99556.13;;;11.80
71630;BMP280;59479;51.902;8.212;2023-04-24T07:10:34;99550.09;;;11.87
71630;BMP280;59479;51.902;8.212;2023-04-24T07:13:00;99547.38;;;11.95
71630;BMP280;59479;51.902;8.212;2023-04-24T07:15:26;99549.00;;;11.99
71630;BMP280;59479;51.902;8.212;2023-04-24T07:17:52;99559.19;;;11.93
71630;BMP280;59479;51.902;8.212;2023-04-24T07:20:17;99551.13;;;11.79
71630;BMP280;59479;51.902;8.212;2023-04-24T07:22:43;99560.38;;;11.78
71630;BMP280;59479;51.902;8.212;2023-04-24T07:25:08;99554.50;;;11.76
71630;BMP280;59479;51.902;8.212;2023-04-24T07:27:34;99567.09;;;11.76
71630;BMP280;59479;51.902;8.212;2023-04-24T07:30:02;99567.19;;;11.74
71630;BMP280;59479;51.902;8.212;2023-04-24T07:32:29;99562.06;;;11.76
71630;BMP280;59479;51.902;8.212;2023-04-24T07:34:54;99563.66;;;11.80
71630;BMP280;59479;51.902;8.212;2023-04-24T07:37:20;99563.03;;;11.71
71630;BMP280;59479;51.902;8.212;2023-04-24T07:39:45;99558.69;;;11.77
71630;BMP280;59479;51.902;8.212;2023-04-24T07:42:11;99557.06;;;11.75
71630;BMP280;59479;51.902;8.212;2023-04-24T07:44:36;99563.00;;;11.73
71630;BMP280;59479;51.902;8.212;2023-04-24T07:47:01;99559.41;;;11.84
71630;BMP280;59479;51.902;8.212;2023-04-24T07:49:27;99568.75;;;11.77
71630;BMP280;59479;51.902;8.212;2023-04-24T07:51:53;99565.47;;;11.75
71630;BMP280;59479;51.902;8.212;2023-04-24T07:54:18;99571.47;;;11.70
71630;BMP280;59479;51.902;8.212;2023-04-24T07:56:44;99567.69;;;11.89
71630;BMP280;59479;51.902;8.212;2023-04-24T07:59:10;99581.28;;;11.80
71630;BMP280;59479;51.902;8.212;2023-04-24T08:01:36;99583.66;;;11.86
71630;BMP280;59479;51.902;8.212;2023-04-24T08:04:01;99577.72;;;11.90
71630;BMP280;59479;51.902;8.212;2023-04-24T08:06:27;99572.72;;;11.89
71630;BMP280;59479;51.902;8.212;2023-04-24T08:08:59;99578.63;;;11.86
71630;BMP280;59479;51.902;8.212;2023-04-24T08:11:25;99587.94;;;11.83
71630;BMP280;59479;51.902;8.212;2023-04-24T08:13:50;99586.91;;;11.91
71630;BMP280;59479;51.902;8.212;2023-04-24T08:16:16;99588.44;;;11.98
71630;BMP280;59479;51.902;8.212;2023-04-24T08:18:41;99582.25;;;12.11
71630;BMP280;59479;51.902;8.212;2023-04-24T08:21:07;99593.41;;;12.01
71630;BMP280;59479;51.902;8.212;2023-04-24T08:23:32;99580.75;;;12.04
71630;BMP280;59479;51.902;8.212;2023-04-24T08:25:57;99594.84;;;12.11
71630;BMP280;59479;51.902;8.212;2023-04-24T08:28:23;99593.41;;;12.01
71630;BMP280;59479;51.902;8.212;2023-04-24T08:30:48;99591.84;;;11.96
71630;BMP280;59479;51.902;8.212;2023-04-24T08:33:17;99598.84;;;11.83
71630;BMP280;59479;51.902;8.212;2023-04-24T08:35:43;99596.22;;;11.88
71630;BMP280;59479;51.902;8.212;2023-04-24T08:38:08;99598.88;;;11.82
71630;BMP280;59479;51.902;8.212;2023-04-24T08:40:34;99614.94;;;11.75
71630;BMP280;59479;51.902;8.212;2023-04-24T08:42:59;99614.06;;;11.77
71630;BMP280;59479;51.902;8.212;2023-04-24T08:45:25;99596.44;;;11.77
71630;BMP280;59479;51.902;8.212;2023-04-24T08:47:52;99605.66;;;11.78
71630;BMP280;59479;51.902;8.212;2023-04-24T08:50:18;99606.53;;;11.77
71630;BMP280;59479;51.902;8.212;2023-04-24T08:52:44;99598.84;;;11.83
71630;BMP280;59479;51.902;8.212;2023-04-24T08:55:09;99602.22;;;11.82
71630;BMP280;59479;51.902;8.212;2023-04-24T08:57:35;99604.81;;;11.78
71630;BMP280;59479;51.902;8.212;2023-04-24T09:00:04;99601.53;;;11.74
71630;BMP280;59479;51.902;8.212;2023-04-24T09:02:29;99598.13;;;11.78
71630;BMP280;59479;51.902;8.212;2023-04-24T09:04:57;99605.78;;;11.73
71630;BMP280;59479;51.902;8.212;2023-04-24T09:07:24;99606.00;;;11.62
71630;BMP280;59479;51.902;8.212;2023-04-24T09:09:51;99598.91;;;11.80
71630;BMP280;59479;51.902;8.212;2023-04-24T09:12:17;99607.06;;;11.91
71630;BMP280;59479;51.902;8.212;2023-04-24T09:14:45;99603.00;;;11.84
71630;BMP280;59479;51.902;8.212;2023-04-24T09:17:11;99615.38;;;11.93
71630;BMP280;59479;51.902;8.212;2023-04-24T09:19:37;99606.19;;;11.92
71630;BMP280;59479;51.902;8.212;2023-04-24T09:22:06;99614.50;;;11.96
71630;BMP280;59479;51.902;8.212;2023-04-24T09:24:32;99625.72;;;11.81
71630;BMP280;59479;51.902;8.212;2023-04-24T09:26:58;99634.84;;;11.87
71630;BMP280;59479;51.902;8.212;2023-04-24T09:29:24;99625.00;;;11.76
71630;BMP280;59479;51.902;8.212;2023-04-24T09:31:50;99625.81;;;11.78
71630;BMP280;59479;51.902;8.212;2023-04-24T09:34:21;99628.13;;;11.87
71630;BMP280;59479;51.902;8.212;2023-04-24T09:36:47;99633.50;;;11.71
71630;BMP280;59479;51.902;8.212;2023-04-24T09:39:15;99632.63;;;11.74
71630;BMP280;59479;51.902;8.212;2023-04-24T09:41:54;99632.78;;;11.65
71630;BMP280;59479;51.902;8.212;2023-04-24T09:44:26;99631.78;;;11.73
71630;BMP280;59479;51.902;8.212;2023-04-24T09:46:56;99639.19;;;11.80
71630;BMP280;59479;51.902;8.212;2023-04-24T09:49:29;99632.53;;;11.76
71630;BMP280;59479;51.902;8.212;2023-04-24T09:52:09;99638.59;;;11.68
71630;BMP280;59479;51.902;8.212;2023-04-24T09:54:35;99657.03;;;11.70
71630;BMP280;59479;51.902;8.212;2023-04-24T09:57:01;99646.31;;;11.61
71630;BMP280;59479;51.902;8.212;2023-04-24T09:59:27;99644.63;;;11.60
71630;BMP280;59479;51.902;8.212;2023-04-24T10:01:52;99649.78;;;11.55
71630;BMP280;59479;51.902;8.212;2023-04-24T10:04:20;99653.31;;;11.44
71630;BMP280;59479;51.902;8.212;2023-04-24T10:06:46;99652.44;;;11.46
71630;BMP280;59479;51.902;8.212;2023-04-24T10:09:12;99659.88;;;11.54
71630;BMP280;59479;51.902;8.212;2023-04-24T10:11:43;99656.38;;;11.61
71630;BMP280;59479;51.902;8.212;2023-04-24T10:14:14;99670.72;;;11.56
71630;BMP280;59479;51.902;8.212;2023-04-24T10:16:40;99663.91;;;11.61
71630;BMP280;59479;51.902;8.212;2023-04-24T10:19:07;99667.22;;;11.63
71630;BMP280;59479;51.902;8.212;2023-04-24T10:21:34;99666.25;;;11.70
71630;BMP280;59479;51.902;8.212;2023-04-24T10:24:00;99678.81;;;11.71
71630;BMP280;59479;51.902;8.212;2023-04-24T10:26:29;99671.16;;;11.75
71630;BMP280;59479;51.902;8.212;2023-04-24T10:28:57;99685.41;;;11.75
71630;BMP280;59479;51.902;8.212;2023-04-24T10:31:28;99678.69;;;11.77
71630;BMP280;59479;51.902;8.212;2023-04-24T10:33:56;99698.31;;;11.60
71630;BMP280;59479;51.902;8.212;2023-04-24T10:36:23;99694.91;;;11.63
71630;BMP280;59479;51.902;8.212;2023-04-24T10:38:52;99702.63;;;11.54
71630;BMP280;59479;51.902;8.212;2023-04-24T10:41:18;99705.78;;;11.63
71630;BMP280;59479;51.902;8.212;2023-04-24T10:43:58;99714.00;;;11.74
71630;BMP280;59479;51.902;8.212;2023-04-24T10:46:29;99718.22;;;11.72
71630;BMP280;59479;51.902;8.212;2023-04-24T10:48:55;99718.31;;;11.68
71630;BMP280;59479;51.902;8.212;2023-04-24T10:51:22;99726.53;;;11.75
71630;BMP280;59479;51.902;8.212;2023-04-24T10:53:50;99724.72;;;11.83
71630;BMP280;59479;51.902;8.212;2023-04-24T10:56:16;99727.25;;;11.83
71630;BMP280;59479;51.902;8.212;2023-04-24T10:58:44;99732.22;;;11.85
71630;BMP280;59479;51.902;8.212;2023-04-24T11:01:29;99734.59;;;11.92
71630;BMP280;59479;51.902;8.212;2023-04-24T11:03:56;99735.72;;;11.78
71630;BMP280;59479;51.902;8.212;2023-04-24T11:06:35;99742.34;;;11.83
71630;BMP280;59479;51.902;8.212;2023-04-24T11:09:10;99744.97;;;11.76
71630;BMP280;59479;51.902;8.212;2023-04-24T11:11:45;99749.97;;;11.79
71630;BMP280;59479;51.902;8.212;2023-04-24T11:14:14;99750.03;;;11.76
71630;BMP280;59479;51.902;8.212;2023-04-24T11:16:52;99753.53;;;11.68
71630;BMP280;59479;51.902;8.212;2023-04-24T11:19:26;99763.59;;;11.68
71630;BMP280;59479;51.902;8.212;2023-04-24T11:22:03;99762.81;;;11.66
71630;BMP280;59479;51.902;8.212;2023-04-24T11:24:39;99778.66;;;11.71
71630;BMP280;59479;51.902;8.212;2023-04-24T11:27:20;99772.72;;;11.73
71630;BMP280;59479;51.902;8.212;2023-04-24T11:34:40;99780.50;;;11.60
71630;BMP280;59479;51.902;8.212;2023-04-24T11:37:05;99801.75;;;11.42
71630;BMP280;59479;51.902;8.212;2023-04-24T11:39:36;99796.19;;;11.24
71630;BMP280;59479;51.902;8.212;2023-04-24T11:42:03;99809.06;;;11.03
71630;BMP280;59479;51.902;8.212;2023-04-24T11:44:29;99822.53;;;11.01
71630;BMP280;59479;51.902;8.212;2023-04-24T11:46:55;99838.41;;;11.04
71630;BMP280;59479;51.902;8.212;2023-04-24T11:49:21;99849.19;;;11.12
71630;BMP280;59479;51.902;8.212;2023-04-24T11:51:46;99855.88;;;11.12
71630;BMP280;59479;51.902;8.212;2023-04-24T11:54:11;99860.91;;;11.13
71630;BMP280;59479;51.902;8.212;2023-04-24T11:56:37;99874.56;;;10.94
71630;BMP280;59479;51.902;8.212;2023-04-24T11:59:04;99873.16;;;10.77
71630;BMP280;59479;51.902;8.212;2023-04-24T12:01:29;99888.22;;;10.79
71630;BMP280;59479;51.902;8.212;2023-04-24T12:03:59;99891.41;;;10.89
71630;BMP280;59479;51.902;8.212;2023-04-24T12:06:25;99897.03;;;11.08
71630;BMP280;59479;51.902;8.212;2023-04-24T12:08:52;99896.97;;;11.12
71630;BMP280;59479;51.902;8.212;2023-04-24T12:11:17;99900.31;;;11.13
71630;BMP280;59479;51.902;8.212;2023-04-24T12:13:45;99901.91;;;11.18
71630;BMP280;59479;51.902;8.212;2023-04-24T12:16:11;99901.09;;;11.16
71630;BMP280;59479;51.902;8.212;2023-04-24T12:18:42;99905.19;;;11.23
71630;BMP280;59479;51.902;8.212;2023-04-24T12:21:21;99905.00;;;11.35
71630;BMP280;59479;51.902;8.212;2023-04-24T12:23:46;99905.91;;;11.31
71630;BMP280;59479;51.902;8.212;2023-04-24T12:26:16;99901.66;;;11.34
71630;BMP280;59479;51.902;8.212;2023-04-24T12:28:43;99915.97;;;11.32
71630;BMP280;59479;51.902;8.212;2023-04-24T12:31:10;99912.72;;;11.23
71630;BMP280;59479;51.902;8.212;2023-04-24T12:33:36;99918.44;;;11.34
71630;BMP280;59479;51.902;8.212;2023-04-24T12:36:01;99930.41;;;11.20
71630;BMP280;59479;51.902;8.212;2023-04-24T12:38:28;99937.03;;;11.24
71630;BMP280;59479;51.902;8.212;2023-04-24T12:41:10;99940.56;;;11.10
71630;BMP280;59479;51.902;8.212;2023-04-24T12:43:36;99944.00;;;11.06
71630;BMP280;59479;51.902;8.212;2023-04-24T12:46:02;99950.09;;;10.87
71630;BMP280;59479;51.902;8.212;2023-04-24T12:48:28;99949.97;;;10.96
71630;BMP280;59479;51.902;8.212;2023-04-24T12:50:54;99955.13;;;10.86
71630;BMP280;59479;51.902;8.212;2023-04-24T12:53:20;99960.94;;;10.90
71630;BMP280;59479;51.902;8.212;2023-04-24T12:55:45;99976.66;;;11.07
71630;BMP280;59479;51.902;8.212;2023-04-24T12:58:17;99969.03;;;11.13
71630;BMP280;59479;51.902;8.212;2023-04-24T13:00:42;99968.22;;;11.11
71630;BMP280;59479;51.902;8.212;2023-04-24T13:03:09;99971.53;;;11.13
71630;BMP280;59479;51.902;8.212;2023-04-24T13:05:34;99974.31;;;10.95
71630;BMP280;59479;51.902;8.212;2023-04-24T13:08:00;99970.88;;;10.99
71630;BMP280;59479;51.902;8.212;2023-04-24T13:10:25;99985.06;;;11.05
71630;BMP280;59479;51.902;8.212;2023-04-24T13:12:50;99976.69;;;11.06
71630;BMP280;59479;51.902;8.212;2023-04-24T13:15:16;99988.38;;;11.08
71630;BMP280;59479;51.902;8.212;2023-04-24T13:17:41;99992.53;;;11.12
71630;BMP280;59479;51.902;8.212;2023-04-24T13:20:06;99991.59;;;11.18
71630;BMP280;59479;51.902;8.212;2023-04-24T13:22:32;99985.72;;;11.20
71630;BMP280;59479;51.902;8.212;2023-04-24T13:24:57;99986.59;;;11.16
71630;BMP280;59479;51.902;8.212;2023-04-24T13:27:23;99990.75;;;11.20
71630;BMP280;59479;51.902;8.212;2023-04-24T13:29:48;99982.97;;;11.36
71630;BMP280;59479;51.902;8.212;2023-04-24T13:32:13;99991.41;;;11.32
71630;BMP280;59479;51.902;8.212;2023-04-24T13:34:39;99985.72;;;11.20
71630;BMP280;59479;51.902;8.212;2023-04-24T13:37:05;99999.94;;;11.23
71630;BMP280;59479;51.902;8.212;2023-04-24T13:39:30;100000.75;;;11.23
71630;BMP280;59479;51.902;8.212;2023-04-24T13:41:57;99999.88;;;11.29
71630;BMP280;59479;51.902;8.212;2023-04-24T13:44:22;99997.28;;;11.33
71630;BMP280;59479;51.902;8.212;2023-04-24T13:46:51;99994.88;;;11.24
71630;BMP280;59479;51.902;8.212;2023-04-24T13:49:17;99995.69;;;11.26
71630;BMP280;59479;51.902;8.212;2023-04-24T13:51:43;100003.41;;;11.11
71630;BMP280;59479;51.902;8.212;2023-04-24T13:54:09;99994.91;;;11.23
71630;BMP280;59479;51.902;8.212;2023-04-24T13:56:34;100005.72;;;11.29
71630;BMP280;59479;51.902;8.212;2023-04-24T13:58:59;99994.69;;;11.40
71630;BMP280;59479;51.902;8.212;2023-04-24T14:01:25;100002.97;;;11.48
71630;BMP280;59479;51.902;8.212;2023-04-24T14:03:51;100003.00;;;11.44
71630;BMP280;59479;51.902;8.212;2023-04-24T14:06:20;100006.47;;;11.37
71630;BMP280;59479;51.902;8.212;2023-04-24T14:08:47;100004.91;;;11.29